Time;durP1;ratioP1;P1;durP2;ratioP2;P2;SDS_P1;SDS_P2;PMS_P1;PMS_P2;Temp;Humidity;BMP_temperature;BMP_pressure;BME280_temperature;BME280_humidity;BME280_pressure;Samples;Min_cycle;Max_cycle;Signal;HPM_P1;HPM_P2
2022/05/15 00:02:08;;;;;;;0.75;0.63;;;;;;;14.10;82.98;101476.66;5029288;28;20041;-67
2022/05/15 00:04:34;;;;;;;2.75;1.15;;;;;;;14.09;83.34;101478.59;5027382;28;20030;-68
2022/05/15 00:07:00;;;;;;;4.68;1.13;;;;;;;14.09;83.51;101477.81;5027392;28;20076;-68
2022/05/15 00:09:25;;;;;;;2.92;0.65;;;;;;;14.04;83.73;101475.38;5026379;28;20096;-68
2022/05/15 00:11:51;;;;;;;4.68;1.33;;;;;;;14.07;83.58;101475.44;5031126;28;20041;-67
2022/05/15 00:14:16;;;;;;;0.75;0.73;;;;;;;14.03;83.49;101477.31;5029904;28;20033;-68
2022/05/15 00:16:42;;;;;;;5.68;1.13;;;;;;;13.95;84.07;101482.97;5027455;28;20038;-68
2022/05/15 00:19:09;;;;;;;3.72;1.63;;;;;;;13.94;84.46;101470.53;5028081;28;20041;-68
2022/05/15 00:21:36;;;;;;;1.77;1.08;;;;;;;13.92;84.32;101487.16;5030469;28;20296;-69
2022/05/15 00:24:02;;;;;;;2.28;1.00;;;;;;;13.86;84.71;101479.69;5029993;28;20041;-68
2022/05/15 00:26:28;;;;;;;4.72;1.52;;;;;;;13.84;84.83;101482.72;5025964;28;20407;-68
2022/05/15 00:28:53;;;;;;;1.48;0.85;;;;;;;13.79;85.00;101477.59;5028749;28;20108;-68
2022/05/15 00:31:19;;;;;;;1.35;0.98;;;;;;;13.76;84.68;101481.03;5028079;28;20133;-68
2022/05/15 00:33:44;;;;;;;3.83;1.23;;;;;;;13.74;84.96;101472.50;5030168;28;20037;-68
2022/05/15 00:36:11;;;;;;;2.65;0.95;;;;;;;13.73;84.87;101476.31;5027126;28;20079;-69
2022/05/15 00:38:37;;;;;;;6.10;1.02;;;;;;;13.74;84.75;101469.78;5029764;28;20037;-68
2022/05/15 00:41:04;;;;;;;1.13;0.85;;;;;;;13.67;85.02;101477.75;5028250;28;20041;-68
2022/05/15 00:43:51;;;;;;;4.45;1.30;;;;;;;13.63;85.16;101478.81;5030178;28;20083;-68
2022/05/15 00:46:28;;;;;;;2.20;1.13;;;;;;;13.65;84.68;101476.50;5023069;28;20051;-67
2022/05/15 00:48:56;;;;;;;2.63;0.82;;;;;;;13.59;84.71;101470.59;5025244;28;20496;-67
2022/05/15 00:51:40;;;;;;;6.70;1.10;;;;;;;13.56;85.02;101474.81;5029503;28;20040;-68
2022/05/15 00:54:15;;;;;;;1.45;1.08;;;;;;;13.51;84.98;101474.31;5028957;28;20583;-68
2022/05/15 00:56:48;;;;;;;1.58;0.85;;;;;;;13.46;85.14;101471.88;5016247;28;20052;-68
2022/05/15 00:59:17;;;;;;;2.70;1.48;;;;;;;13.45;84.83;101471.06;5042644;28;20124;-68
2022/05/15 01:01:43;;;;;;;0.95;0.60;;;;;;;13.37;84.76;101479.41;5024749;28;20041;-68
2022/05/15 01:04:08;;;;;;;3.30;1.23;;;;;;;13.35;84.75;101477.06;5029292;28;20404;-68
2022/05/15 01:06:36;;;;;;;2.25;1.02;;;;;;;13.28;85.05;101482.28;5027590;28;20087;-69
2022/05/15 01:09:04;;;;;;;5.13;1.20;;;;;;;13.29;84.83;101477.69;5027391;28;20033;-68
2022/05/15 01:11:33;;;;;;;1.25;0.75;;;;;;;13.31;84.79;101481.59;5027945;28;20104;-69
2022/05/15 01:14:05;;;;;;;3.97;1.27;;;;;;;13.28;84.23;101486.91;5026705;28;20029;-68
2022/05/15 01:16:32;;;;;;;2.13;1.20;;;;;;;13.22;84.25;101488.34;5027920;28;20072;-68
2022/05/15 01:18:59;;;;;;;1.52;1.00;;;;;;;13.19;84.23;101480.91;5024017;28;20034;-68
2022/05/15 01:21:33;;;;;;;1.50;0.90;;;;;;;13.15;84.42;101480.06;5027262;28;20025;-68
2022/05/15 01:24:00;;;;;;;1.63;0.82;;;;;;;13.12;84.59;101488.88;5025292;28;20040;-68
2022/05/15 01:26:29;;;;;;;2.28;1.00;;;;;;;13.07;85.30;101481.00;5026100;28;20037;-68
2022/05/15 01:28:57;;;;;;;1.38;1.20;;;;;;;13.10;85.14;101480.31;5027997;28;20037;-69
2022/05/15 01:31:23;;;;;;;1.05;0.98;;;;;;;13.10;85.38;101480.31;5027381;28;20099;-68
2022/05/15 01:33:51;;;;;;;1.20;1.00;;;;;;;13.10;85.25;101480.31;5026478;28;20397;-68
2022/05/15 01:36:21;;;;;;;2.00;1.23;;;;;;;13.08;85.34;101494.22;5026322;28;20029;-68
2022/05/15 01:38:47;;;;;;;8.10;1.25;;;;;;;13.06;85.38;101484.88;5028445;28;20029;-68
2022/05/15 01:41:13;;;;;;;1.67;1.00;;;;;;;13.03;85.24;101490.94;5024716;28;20029;-68
2022/05/15 01:43:43;;;;;;;2.92;1.65;;;;;;;12.97;85.21;101484.25;5028576;28;20037;-69
2022/05/15 01:46:09;;;;;;;1.88;1.20;;;;;;;12.90;86.05;101489.47;5027352;28;20072;-68
2022/05/15 01:48:36;;;;;;;9.98;1.63;;;;;;;12.91;85.70;101494.50;5024404;28;20021;-68
2022/05/15 01:51:03;;;;;;;1.65;1.02;;;;;;;12.86;85.42;101488.59;5027995;28;20082;-68
2022/05/15 01:53:29;;;;;;;1.90;1.42;;;;;;;12.83;85.05;101494.69;5026826;28;20091;-68
2022/05/15 01:55:55;;;;;;;1.65;1.15;;;;;;;12.72;85.12;101491.72;5024535;28;20063;-68
2022/05/15 01:58:22;;;;;;;3.10;1.23;;;;;;;12.68;84.64;101493.53;5021729;28;20064;-68
2022/05/15 02:00:47;;;;;;;2.70;1.10;;;;;;;12.66;84.79;101496.59;5026847;28;20099;-67
2022/05/15 02:03:13;;;;;;;1.55;0.88;;;;;;;12.65;84.16;101491.56;5026908;28;20057;-68
2022/05/15 02:05:39;;;;;;;1.15;0.80;;;;;;;12.59;84.22;101490.25;5020598;28;20047;-68
2022/05/15 02:08:05;;;;;;;1.90;1.00;;;;;;;12.53;84.02;101488.91;5022851;28;20037;-68
2022/05/15 02:10:30;;;;;;;2.15;0.93;;;;;;;12.48;84.02;101487.28;5027420;28;20366;-67
2022/05/15 02:12:56;;;;;;;0.63;0.60;;;;;;;12.37;83.96;101483.50;5026405;28;20209;-68
2022/05/15 02:15:22;;;;;;;1.67;0.90;;;;;;;12.36;83.87;101494.66;5027034;28;20151;-68
2022/05/15 02:17:48;;;;;;;0.65;0.63;;;;;;;12.31;83.99;101498.38;5026335;28;20157;-67
2022/05/15 02:20:14;;;;;;;1.23;0.82;;;;;;;12.23;84.00;101495.84;5026134;28;20033;-68
2022/05/15 02:22:41;;;;;;;1.60;0.98;;;;;;;12.21;84.29;101488.09;5026944;28;20519;-68
2022/05/15 02:25:08;;;;;;;0.75;0.75;;;;;;;12.16;84.01;101485.63;5023715;28;20500;-68
2022/05/15 02:27:40;;;;;;;2.08;1.15;;;;;;;12.09;84.39;101493.53;5025318;28;20044;-68
2022/05/15 02:30:08;;;;;;;0.75;0.55;;;;;;;12.06;84.63;101483.41;5018787;28;20027;-68
2022/05/15 02:32:34;;;;;;;6.13;0.88;;;;;;;12.09;84.72;101484.66;5024857;28;20488;-68
2022/05/15 02:34:59;;;;;;;1.25;1.08;;;;;;;12.04;84.45;101480.28;5026788;28;20037;-68
2022/05/15 02:37:25;;;;;;;1.00;0.65;;;;;;;12.04;84.37;101482.97;5022475;28;20463;-69
2022/05/15 02:39:51;;;;;;;1.60;0.75;;;;;;;11.99;84.37;101491.31;5026991;28;20319;-68
2022/05/15 02:42:17;;;;;;;1.63;0.95;;;;;;;11.95;84.76;101484.25;5007712;28;20117;-68
2022/05/15 02:44:42;;;;;;;1.40;1.00;;;;;;;11.94;85.03;101483.47;5027129;28;20043;-68
2022/05/15 02:47:08;;;;;;;1.20;0.95;;;;;;;11.92;85.21;101488.44;5023182;28;20033;-68
2022/05/15 02:52:17;;;;;;;6.30;1.02;;;;;;;11.87;85.38;101482.47;5028745;28;20033;-68
2022/05/15 02:54:43;;;;;;;1.17;0.85;;;;;;;11.86;85.60;101481.69;5027560;28;20096;-68
2022/05/15 02:57:10;;;;;;;1.70;0.63;;;;;;;11.86;86.03;101479.00;5024351;28;20184;-68
2022/05/15 02:59:37;;;;;;;1.73;0.93;;;;;;;11.88;85.60;101479.44;5028067;28;20025;-68
2022/05/15 03:02:03;;;;;;;1.20;0.88;;;;;;;11.84;85.87;101489.34;5026950;28;20041;-68
2022/05/15 03:04:31;;;;;;;2.95;1.60;;;;;;;11.79;86.21;101487.69;5026503;28;20499;-67
2022/05/15 03:06:57;;;;;;;1.35;0.88;;;;;;;11.74;85.94;101493.31;5018523;28;20029;-68
2022/05/15 03:09:23;;;;;;;3.35;1.15;;;;;;;11.73;86.26;101488.25;5025991;28;20028;-68
2022/05/15 03:11:48;;;;;;;1.02;0.93;;;;;;;11.69;86.39;101487.38;5028205;28;20036;-68
2022/05/15 03:14:14;;;;;;;7.85;1.00;;;;;;;11.70;86.22;101486.25;5024158;28;20084;-68
2022/05/15 03:16:40;;;;;;;2.17;0.90;;;;;;;11.68;85.93;101493.88;5026907;28;20435;-68
2022/05/15 03:19:05;;;;;;;2.35;0.98;;;;;;;11.64;86.18;101503.75;5021528;28;20034;-68
2022/05/15 03:21:31;;;;;;;1.00;0.75;;;;;;;11.65;86.63;101500.75;5024665;28;20069;-68
2022/05/15 03:24:07;;;;;;;4.20;1.27;;;;;;;11.65;86.41;101510.75;5026671;28;20041;-69
2022/05/15 03:26:35;;;;;;;0.93;0.88;;;;;;;11.64;86.37;101511.84;5024136;28;20029;-68
2022/05/15 03:29:01;;;;;;;0.80;0.60;;;;;;;11.59;86.42;101509.41;5024204;28;20041;-68
2022/05/15 03:31:26;;;;;;;2.03;1.02;;;;;;;11.60;86.13;101514.44;5025388;28;20033;-68
2022/05/15 03:33:53;;;;;;;1.40;1.20;;;;;;;11.57;86.41;101517.03;5024027;28;20076;-68
2022/05/15 03:36:19;;;;;;;2.47;1.10;;;;;;;11.62;86.19;101508.72;5028010;28;20448;-68
2022/05/15 03:38:46;;;;;;;1.30;0.80;;;;;;;11.59;86.67;101515.56;5028620;28;20065;-68
2022/05/15 03:41:13;;;;;;;3.30;1.17;;;;;;;11.59;86.57;101525.59;5025627;28;20037;-68
2022/05/15 03:43:39;;;;;;;5.00;0.90;;;;;;;11.54;86.95;101529.28;5028308;28;20480;-68
2022/05/15 03:46:07;;;;;;;2.50;0.88;;;;;;;11.56;86.92;101520.84;5029941;28;20029;-68
2022/05/15 03:48:33;;;;;;;9.27;1.20;;;;;;;11.56;87.33;101537.03;5028898;28;20476;-68
2022/05/15 03:50:59;;;;;;;2.70;1.15;;;;;;;11.62;87.08;101531.09;5029652;28;20500;-68
2022/05/15 03:53:26;;;;;;;2.85;1.45;;;;;;;11.64;87.06;101533.44;5027120;28;20048;-68
2022/05/15 03:55:55;;;;;;;2.78;1.35;;;;;;;11.60;87.40;101522.53;5029498;28;20124;-68
2022/05/15 03:58:30;;;;;;;1.77;1.02;;;;;;;11.62;87.36;101536.47;5026182;28;20033;-68
2022/05/15 04:00:56;;;;;;;1.42;0.93;;;;;;;11.60;87.72;101530.63;5029502;28;20044;-68
2022/05/15 04:03:21;;;;;;;5.40;1.73;;;;;;;11.65;87.88;101535.03;5029821;28;20025;-68
2022/05/15 04:05:48;;;;;;;1.88;1.17;;;;;;;11.66;87.65;101537.41;5027317;28;20089;-68
2022/05/15 04:08:14;;;;;;;1.15;0.82;;;;;;;11.64;88.22;101536.94;5029265;28;20028;-68
2022/05/15 04:10:39;;;;;;;6.25;0.95;;;;;;;11.61;88.16;101536.81;5026971;28;20163;-68
2022/05/15 04:13:05;;;;;;;1.63;0.95;;;;;;;11.61;88.39;101545.69;5029567;28;20119;-68
2022/05/15 04:15:32;;;;;;;1.15;1.05;;;;;;;11.66;88.34;101547.41;5030186;28;20047;-68
2022/05/15 04:17:59;;;;;;;2.65;1.10;;;;;;;11.68;88.63;101555.94;5026347;28;20496;-68
2022/05/15 04:20:27;;;;;;;1.92;1.00;;;;;;;11.68;88.76;101562.13;5029501;28;20033;-68
2022/05/15 04:22:53;;;;;;;2.03;0.98;;;;;;;11.71;88.77;101561.44;5029353;28;20072;-68
2022/05/15 04:25:19;;;;;;;2.83;1.20;;;;;;;11.75;88.64;101566.94;5027061;28;20057;-68
2022/05/15 04:27:46;;;;;;;1.92;1.17;;;;;;;11.78;88.73;101560.88;5030196;28;20087;-68
2022/05/15 04:30:15;;;;;;;2.17;0.75;;;;;;;11.79;89.01;101560.53;5029178;28;20127;-68
2022/05/15 04:32:41;;;;;;;1.45;1.27;;;;;;;11.83;89.20;101560.63;5030434;28;20065;-68
2022/05/15 04:35:08;;;;;;;1.30;1.20;;;;;;;11.89;89.18;101561.19;5028441;28;20021;-68
2022/05/15 04:37:34;;;;;;;1.05;0.82;;;;;;;11.94;88.99;101569.84;5045108;28;20124;-68
2022/05/15 04:39:59;;;;;;;2.30;0.98;;;;;;;11.95;88.86;101562.53;5029849;28;20125;-68
2022/05/15 04:42:25;;;;;;;1.92;1.00;;;;;;;11.97;88.76;101566.47;5026387;28;20064;-68
2022/05/15 04:44:51;;;;;;;0.77;0.77;;;;;;;12.03;88.67;101572.41;5030106;28;20044;-68
2022/05/15 04:47:16;;;;;;;2.33;1.20;;;;;;;12.05;88.83;101573.66;5028214;28;20432;-68
2022/05/15 04:49:43;;;;;;;2.63;1.20;;;;;;;12.11;89.08;101572.28;5026029;28;20101;-68
2022/05/15 04:52:09;;;;;;;1.77;0.90;;;;;;;12.18;89.27;101575.19;5029675;28;20095;-68
2022/05/15 04:54:35;;;;;;;1.80;1.45;;;;;;;12.24;89.38;101570.31;5027523;28;20124;-68
2022/05/15 04:57:00;;;;;;;2.30;1.10;;;;;;;12.28;89.16;101573.91;5024247;28;20105;-68
2022/05/15 04:59:26;;;;;;;2.75;1.10;;;;;;;12.35;90.06;101583.00;5028533;28;20484;-68
2022/05/15 05:01:51;;;;;;;2.70;0.93;;;;;;;12.41;89.92;101584.31;5026227;28;20029;-68
2022/05/15 05:04:16;;;;;;;2.90;1.10;;;;;;;12.49;90.53;101590.72;5029521;28;20037;-68
2022/05/15 05:06:42;;;;;;;1.80;1.02;;;;;;;12.60;90.61;101586.41;5027417;28;20041;-68
2022/05/15 05:09:08;;;;;;;4.50;1.38;;;;;;;12.69;90.81;101590.53;5029600;28;20064;-68
2022/05/15 05:11:33;;;;;;;6.05;1.42;;;;;;;12.82;91.25;101588.53;5018151;28;20934;-68
2022/05/15 05:13:59;;;;;;;6.13;1.67;;;;;;;13.03;91.75;101590.97;5029662;28;20033;-68
2022/05/15 05:16:24;;;;;;;4.35;1.50;;;;;;;13.43;91.23;101591.66;5029440;28;20033;-68
2022/05/15 05:18:50;;;;;;;2.50;1.45;;;;;;;14.10;90.38;101591.22;5024604;28;20091;-68
2022/05/15 05:21:16;;;;;;;7.03;1.95;;;;;;;15.15;87.83;101594.44;5029631;28;20041;-68
2022/05/15 05:23:42;;;;;;;4.78;1.67;;;;;;;16.16;83.11;101595.19;5024329;28;20515;-68
2022/05/15 05:26:08;;;;;;;4.15;1.83;;;;;;;17.16;78.11;101603.31;5015150;28;20313;-68
2022/05/15 05:28:33;;;;;;;4.80;2.97;;;;;;;17.91;74.73;101610.91;5019685;28;20044;-68
2022/05/15 05:31:00;;;;;;;4.78;2.03;;;;;;;18.60;71.68;101606.94;5023067;28;20033;-68
2022/05/15 05:33:26;;;;;;;3.90;1.98;;;;;;;19.04;69.33;101616.78;5021502;28;20053;-68
2022/05/15 05:35:53;;;;;;;2.50;1.25;;;;;;;19.70;67.02;101618.78;5026395;28;20037;-68
2022/05/15 05:38:18;;;;;;;4.40;1.30;;;;;;;20.17;63.94;101629.19;5027026;28;20558;-68
2022/05/15 05:40:44;;;;;;;6.32;1.20;;;;;;;20.54;62.65;101621.28;5029152;28;20029;-68
2022/05/15 05:43:09;;;;;;;2.83;1.20;;;;;;;20.90;60.41;101621.09;5023231;28;20065;-68
2022/05/15 05:45:35;;;;;;;4.05;0.80;;;;;;;20.95;60.01;101629.66;5028782;28;20029;-68
2022/05/15 05:48:00;;;;;;;2.50;1.27;;;;;;;20.93;60.45;101626.53;5022823;28;20048;-69
2022/05/15 05:50:27;;;;;;;2.58;1.25;;;;;;;20.73;61.12;101628.19;5027034;28;20073;-68
2022/05/15 05:52:54;;;;;;;2.58;1.13;;;;;;;20.88;60.45;101631.66;5029542;28;20061;-68
2022/05/15 05:55:20;;;;;;;2.38;0.95;;;;;;;20.82;60.85;101628.56;5028357;28;20637;-68
2022/05/15 05:57:46;;;;;;;2.53;1.40;;;;;;;20.80;60.49;101632.88;5021539;28;20071;-68
2022/05/15 06:00:17;;;;;;;3.60;0.88;;;;;;;20.79;59.87;101634.81;5024064;28;20091;-67
2022/05/15 06:02:43;;;;;;;0.90;0.50;;;;;;;20.53;60.37;101636.16;5038280;28;20033;-68
2022/05/15 06:05:08;;;;;;;3.90;0.88;;;;;;;20.52;60.71;101640.06;5006657;28;20100;-67
2022/05/15 06:07:35;;;;;;;4.25;1.70;;;;;;;20.32;60.05;101635.47;5026996;28;20037;-68
2022/05/15 06:10:03;;;;;;;0.75;0.43;;;;;;;20.12;60.36;101635.09;5029077;28;20112;-68
2022/05/15 06:12:28;;;;;;;1.73;0.50;;;;;;;20.08;60.01;101637.06;5021214;28;20026;-68
2022/05/15 06:14:53;;;;;;;1.42;0.75;;;;;;;19.81;59.98;101633.22;5027809;28;20033;-68
2022/05/15 06:17:24;;;;;;;0.80;0.52;;;;;;;19.74;59.40;101639.47;5027619;28;20033;-68
2022/05/15 06:19:50;;;;;;;2.88;0.50;;;;;;;19.71;58.83;101634.78;5020164;28;20037;-68
2022/05/15 06:22:16;;;;;;;0.95;0.70;;;;;;;19.68;59.91;101632.06;5014920;28;20033;-67
2022/05/15 06:24:41;;;;;;;4.00;0.40;;;;;;;19.57;60.49;101634.00;5018554;28;20037;-68
2022/05/15 06:27:07;;;;;;;1.90;0.50;;;;;;;19.56;59.89;101635.97;5017921;28;20512;-68
2022/05/15 06:29:32;;;;;;;0.40;0.32;;;;;;;19.39;58.89;101644.97;5041235;28;20064;-68
2022/05/15 06:31:59;;;;;;;3.95;0.65;;;;;;;19.42;58.47;101637.91;5028869;28;20030;-68
2022/05/15 06:34:25;;;;;;;0.20;0.20;;;;;;;19.27;58.19;101637.13;5024103;28;20480;-67
2022/05/15 06:36:51;;;;;;;0.28;0.17;;;;;;;19.17;57.92;101643.34;5015127;28;20091;-67
2022/05/15 06:39:16;;;;;;;0.95;0.38;;;;;;;19.17;58.43;101629.69;5015687;28;20101;-68
2022/05/15 06:41:42;;;;;;;0.95;0.32;;;;;;;19.16;56.57;101632.81;5019193;28;20112;-68
2022/05/15 06:44:07;;;;;;;0.17;0.10;;;;;;;19.15;55.48;101631.22;5019037;28;21238;-68
2022/05/15 06:46:33;;;;;;;0.10;0.10;;;;;;;19.20;54.97;101637.09;5043068;28;20033;-68
2022/05/15 06:48:58;;;;;;;0.30;0.10;;;;;;;19.28;54.58;101621.50;5028278;28;20025;-68
2022/05/15 06:51:24;;;;;;;0.15;0.10;;;;;;;19.31;53.98;101624.25;5027911;28;20034;-68
2022/05/15 06:53:50;;;;;;;0.30;0.20;;;;;;;19.41;56.08;101625.44;5025004;28;20539;-68
2022/05/15 06:59:02;;;;;;;0.75;0.20;;;;;;;19.46;55.28;101634.03;5013473;28;20373;-68
2022/05/15 07:01:28;;;;;;;0.25;0.20;;;;;;;19.46;54.86;101627.78;5014573;28;20033;-67
2022/05/15 07:03:55;;;;;;;0.13;0.13;;;;;;;19.34;56.08;101623.47;5024664;28;20026;-67
2022/05/15 07:06:20;;;;;;;1.10;0.40;;;;;;;19.37;56.08;101633.66;5027017;28;20044;-68
2022/05/15 07:08:46;;;;;;;0.50;0.35;;;;;;;19.47;55.97;101634.81;5021414;28;20040;-67
2022/05/15 07:11:12;;;;;;;3.72;0.30;;;;;;;19.45;55.41;101626.97;5031480;28;20071;-67
2022/05/15 07:13:38;;;;;;;1.40;0.20;;;;;;;19.59;54.19;101632.44;5031601;28;20114;-67
2022/05/15 07:16:04;;;;;;;0.25;0.25;;;;;;;19.58;54.93;101630.91;5026226;28;20510;-68
2022/05/15 07:18:31;;;;;;;0.28;0.20;;;;;;;19.59;55.75;101632.44;5028995;28;20064;-67
2022/05/15 07:20:56;;;;;;;1.85;0.30;;;;;;;19.66;55.88;101632.47;5023437;28;20123;-68
2022/05/15 07:23:22;;;;;;;0.35;0.10;;;;;;;19.75;55.26;101630.09;5031120;28;20080;-67
2022/05/15 07:25:48;;;;;;;0.85;0.38;;;;;;;19.82;55.17;101628.53;5031662;28;20433;-66
2022/05/15 07:28:14;;;;;;;1.17;0.43;;;;;;;19.90;54.98;101627.34;5031668;28;20048;-66
2022/05/15 07:30:40;;;;;;;2.63;0.63;;;;;;;20.02;54.09;101637.84;5030575;28;20477;-67
2022/05/15 07:33:06;;;;;;;1.20;1.00;;;;;;;20.03;52.76;101633.94;5032130;28;20245;-67
2022/05/15 07:35:31;;;;;;;5.28;0.30;;;;;;;20.01;52.11;101639.03;5031463;28;20132;-68
2022/05/15 07:37:57;;;;;;;2.03;0.20;;;;;;;20.23;50.54;101626.88;5024651;28;20173;-68
2022/05/15 07:40:22;;;;;;;0.10;0.10;;;;;;;20.31;49.71;101629.19;5018152;28;20484;-67
2022/05/15 07:42:48;;;;;;;0.32;0.15;;;;;;;20.41;49.06;101633.84;5028722;28;20396;-67
2022/05/15 07:45:14;;;;;;;0.85;0.10;;;;;;;20.45;48.24;101637.34;5031454;28;20029;-68
2022/05/15 07:47:40;;;;;;;3.13;0.10;;;;;;;20.59;47.44;101634.56;5027454;28;20026;-68
2022/05/15 07:50:07;;;;;;;0.20;0.20;;;;;;;20.60;45.94;101636.09;5030458;28;20040;-68
2022/05/15 07:52:33;;;;;;;0.00;0.00;;;;;;;20.64;47.33;101636.88;5030785;28;20495;-68
2022/05/15 07:54:59;;;;;;;0.75;0.08;;;;;;;20.76;46.61;101635.63;5031290;28;20099;-68
2022/05/15 07:57:24;;;;;;;2.95;0.10;;;;;;;20.80;45.46;101630.91;5029683;28;20041;-68
2022/05/15 07:59:50;;;;;;;0.80;0.25;;;;;;;20.94;46.59;101630.84;5031328;28;20542;-69
2022/05/15 08:02:17;;;;;;;0.40;0.20;;;;;;;21.01;46.65;101633.56;5027171;28;20060;-67
2022/05/15 08:10:11;;;;;;;0.20;0.20;;;;;;;21.39;45.85;101628.94;5022580;28;20490;-67
2022/05/15 08:12:37;;;;;;;0.00;0.00;;;;;;;21.42;46.86;101625.41;5027768;28;20124;-67
2022/05/15 08:15:06;;;;;;;0.60;0.10;;;;;;;21.48;46.42;101618.31;5031216;28;20460;-68
2022/05/15 08:17:31;;;;;;;0.25;0.17;;;;;;;21.51;43.68;101628.47;5025032;28;20029;-68
2022/05/15 08:25:26;;;;;;;0.68;0.15;;;;;;;21.61;43.83;101624.06;5020539;28;20036;-60
2022/05/15 08:27:51;;;;;;;0.00;0.00;;;;;;;21.70;44.42;101618.91;5025643;28;20834;-61
2022/05/15 08:30:17;;;;;;;0.10;0.10;;;;;;;21.78;43.30;101623.91;5030208;28;20029;-62
2022/05/15 08:32:43;;;;;;;0.00;0.00;;;;;;;21.92;43.98;101626.53;5015513;28;20067;-61
2022/05/15 08:35:09;;;;;;;0.15;0.10;;;;;;;22.08;44.38;101629.50;5010613;28;20048;-61
2022/05/15 08:37:34;;;;;;;0.10;0.10;;;;;;;22.27;43.95;101625.34;5005838;28;20039;-61
2022/05/15 08:40:00;;;;;;;0.10;0.10;;;;;;;22.48;44.13;101625.09;5007516;28;20050;-60
2022/05/15 08:42:43;;;;;;;0.08;0.00;;;;;;;22.59;42.81;101617.50;5021183;28;20385;-64
2022/05/15 08:45:14;;;;;;;0.73;0.00;;;;;;;22.81;44.22;101620.75;5030390;28;20079;-63
2022/05/15 08:47:48;;;;;;;0.00;0.00;;;;;;;22.89;43.09;101623.00;5024131;28;20036;-63
2022/05/15 08:50:20;;;;;;;0.15;0.13;;;;;;;22.98;43.44;101625.97;5029060;28;20025;-61
2022/05/15 08:52:45;;;;;;;0.00;0.00;;;;;;;23.09;43.07;101623.84;5026804;28;20045;-66
2022/05/15 08:55:15;;;;;;;0.00;0.00;;;;;;;23.24;43.25;101624.41;5026490;28;20133;-65
2022/05/15 08:57:52;;;;;;;0.10;0.10;;;;;;;23.34;43.03;101623.50;5025055;28;20059;-66
2022/05/15 09:00:28;;;;;;;0.50;0.15;;;;;;;23.40;43.21;101623.78;5023327;28;20038;-67
2022/05/15 09:02:59;;;;;;;0.10;0.10;;;;;;;23.53;42.53;101627.50;5029266;28;20079;-65
2022/05/15 09:05:29;;;;;;;0.88;0.10;;;;;;;23.66;42.82;101618.22;5026916;28;20040;-64
2022/05/15 09:07:57;;;;;;;0.10;0.10;;;;;;;23.89;42.66;101615.44;5025353;28;20328;-65
2022/05/15 09:10:26;;;;;;;0.77;0.15;;;;;;;23.97;42.35;101621.56;5027833;28;20056;-62
2022/05/15 09:13:16;;;;;;;0.10;0.00;;;;;;;23.99;41.43;101619.97;5023444;28;20041;-60
2022/05/15 09:15:56;;;;;;;0.47;0.17;;;;;;;24.09;41.27;101612.72;5016576;28;20029;-62
2022/05/15 09:18:21;;;;;;;0.10;0.10;;;;;;;24.16;41.50;101620.81;5013556;28;20041;-62
2022/05/15 09:20:58;;;;;;;0.20;0.10;;;;;;;24.29;40.13;101620.97;5020861;28;20037;-63
2022/05/15 09:23:29;;;;;;;1.08;0.20;;;;;;;24.29;39.80;101619.00;5025007;28;20044;-62
2022/05/15 09:26:01;;;;;;;0.30;0.30;;;;;;;24.33;39.44;101613.41;5010467;28;20053;-63
2022/05/15 09:28:28;;;;;;;1.85;0.10;;;;;;;24.49;39.64;101617.00;5002231;28;20379;-64
2022/05/15 09:30:58;;;;;;;0.00;0.00;;;;;;;24.61;39.31;101618.31;5015810;28;20040;-64
2022/05/15 09:33:24;;;;;;;1.00;0.35;;;;;;;24.72;39.87;101618.88;5015938;28;20029;-63
2022/05/15 09:35:50;;;;;;;0.30;0.10;;;;;;;24.62;38.75;101612.38;5022587;28;20052;-63
2022/05/15 09:38:28;;;;;;;0.20;0.10;;;;;;;24.73;39.38;101612.16;5021025;28;20038;-63
2022/05/15 09:44:03;;;;;;;0.28;0.10;;;;;;;24.87;38.97;101614.63;5028990;28;20062;-71
2022/05/15 09:46:30;;;;;;;0.00;0.00;;;;;;;25.12;38.36;101616.78;5027581;28;20116;-69
2022/05/15 09:48:58;;;;;;;0.10;0.08;;;;;;;25.16;39.12;101620.22;5035184;28;20063;-71
2022/05/15 09:51:34;;;;;;;0.35;0.20;;;;;;;25.47;38.72;101616.72;5018476;28;20374;-72
2022/05/15 09:54:00;;;;;;;0.20;0.10;;;;;;;25.48;38.60;101612.72;5004940;28;20029;-72
2022/05/15 09:56:32;;;;;;;0.20;0.03;;;;;;;25.59;38.13;101615.22;5026096;28;20107;-69
2022/05/15 09:59:08;;;;;;;0.30;0.15;;;;;;;25.58;37.91;101614.44;5025429;28;20041;-70
2022/05/15 10:01:40;;;;;;;0.17;0.10;;;;;;;25.61;37.51;101613.56;5020908;28;20029;-71
2022/05/15 10:04:25;;;;;;;0.10;0.10;;;;;;;25.70;38.48;101604.69;5038086;28;20084;-71
2022/05/15 10:06:58;;;;;;;1.13;0.22;;;;;;;25.64;36.27;101606.41;5020362;28;20036;-71
2022/05/15 10:09:31;;;;;;;0.30;0.20;;;;;;;25.56;35.73;101605.03;5014585;28;20084;-71
2022/05/15 10:12:05;;;;;;;0.20;0.10;;;;;;;25.56;37.75;101594.78;5011920;28;20034;-70
2022/05/15 10:14:46;;;;;;;0.50;0.25;;;;;;;25.63;36.88;101597.34;5016536;28;20048;-71
2022/05/15 10:17:13;;;;;;;0.40;0.20;;;;;;;25.62;37.74;101595.03;5028059;28;20175;-71
2022/05/15 10:19:46;;;;;;;0.10;0.10;;;;;;;25.84;37.70;101594.00;5022882;28;20041;-71
2022/05/15 10:22:39;;;;;;;0.45;0.10;;;;;;;26.02;36.95;101598.25;5017655;28;20507;-70
2022/05/15 10:25:38;;;;;;;0.10;0.10;;;;;;;26.11;36.85;101601.22;5020458;28;20034;-64
2022/05/15 10:28:09;;;;;;;0.73;0.73;;;;;;;26.28;36.87;101594.38;5013484;28;20824;-64
2022/05/15 10:30:43;;;;;;;0.13;0.10;;;;;;;26.39;35.62;101587.34;5015979;28;20064;-64
2022/05/15 10:33:18;;;;;;;0.10;0.10;;;;;;;26.38;36.52;101585.81;5018095;28;20058;-65
2022/05/15 10:36:19;;;;;;;0.38;0.17;;;;;;;26.49;36.11;101585.47;5012302;28;20034;-65
2022/05/15 10:39:07;;;;;;;0.03;0.03;;;;;;;26.82;36.40;101586.06;5017823;28;20048;-66
2022/05/15 10:41:51;;;;;;;0.28;0.10;;;;;;;27.05;35.88;101582.94;5016637;28;20057;-67
2022/05/15 10:44:42;;;;;;;0.17;0.10;;;;;;;27.04;36.31;101573.84;5028405;28;20040;-65
2022/05/15 10:47:37;;;;;;;1.80;0.20;;;;;;;27.09;36.52;101569.75;5021497;28;20037;-66
2022/05/15 10:50:21;;;;;;;0.08;0.00;;;;;;;27.22;37.46;101567.72;5016272;28;20047;-66
2022/05/15 10:59:13;;;;;;;0.40;0.20;;;;;;;27.38;36.38;101548.22;5023645;28;20472;-65
2022/05/15 11:02:08;;;;;;;0.10;0.10;;;;;;;27.43;35.21;101553.19;5029231;28;20484;-64
2022/05/15 11:05:00;;;;;;;1.95;0.17;;;;;;;27.51;34.62;101546.97;5013741;28;20061;-63
2022/05/15 11:07:34;;;;;;;0.20;0.13;;;;;;;27.42;35.20;101557.19;5018872;28;20030;-65
2022/05/15 11:10:15;;;;;;;0.10;0.10;;;;;;;27.52;34.96;101553.28;5011059;28;20119;-63
2022/05/15 11:12:58;;;;;;;0.67;0.10;;;;;;;27.51;34.31;101546.19;5013229;28;20329;-64
2022/05/15 11:19:25;;;;;;;0.45;0.10;;;;;;;28.01;35.67;101545.19;5027862;28;20040;-66
2022/05/15 11:28:54;;;;;;;0.32;0.15;;;;;;;27.71;34.86;101538.34;5000557;28;20443;-65
2022/05/15 11:31:32;;;;;;;0.10;0.10;;;;;;;27.88;35.31;101534.16;4966075;28;20220;-66
2022/05/15 11:34:04;;;;;;;0.20;0.20;;;;;;;28.17;34.75;101520.78;4981188;28;20042;-64
2022/05/15 11:36:42;;;;;;;0.25;0.17;;;;;;;28.17;34.04;101523.56;4999178;28;20472;-66
2022/05/15 11:39:14;;;;;;;0.50;0.20;;;;;;;28.01;33.95;101525.81;4996215;28;20237;-67
2022/05/15 11:41:42;;;;;;;0.43;0.10;;;;;;;28.09;34.44;101519.53;5009482;28;20194;-67
2022/05/15 11:44:14;;;;;;;0.22;0.10;;;;;;;28.23;35.39;101518.19;5007539;28;20054;-64
2022/05/15 11:46:45;;;;;;;0.20;0.10;;;;;;;28.26;34.15;101518.06;4993905;28;20041;-64
2022/05/15 11:49:40;;;;;;;0.20;0.10;;;;;;;28.21;34.62;101515.13;5013669;28;20041;-68
2022/05/15 11:52:05;;;;;;;0.38;0.13;;;;;;;28.15;34.53;101516.94;5009753;28;20557;-68
2022/05/15 11:54:37;;;;;;;0.28;0.20;;;;;;;28.30;34.59;101517.94;5005397;28;20033;-65
2022/05/15 11:57:06;;;;;;;0.30;0.10;;;;;;;28.11;34.48;101511.53;4998701;28;20036;-66
2022/05/15 11:59:57;;;;;;;0.10;0.10;;;;;;;27.83;33.85;101509.03;4991948;28;20037;-66
2022/05/15 12:02:29;;;;;;;0.10;0.10;;;;;;;27.98;35.13;101519.16;5004183;28;20156;-65
2022/05/15 12:05:11;;;;;;;0.30;0.20;;;;;;;28.03;35.42;101517.81;4978127;28;20467;-65
2022/05/15 12:07:51;;;;;;;0.25;0.10;;;;;;;27.98;36.00;101513.63;5006542;28;20048;-65
2022/05/15 12:10:39;;;;;;;0.20;0.10;;;;;;;27.69;34.38;101502.03;5006651;28;20551;-65